| time (UTC) | temp F | wind direction | speed knots | gust knots | rain 1hr in | rain 24hr in | rain mn in | humidity % | barometer mb |
| 20260506161343 | 62 | 209 | 0.0 | 5.2 | 0.00 | 0.00 | 0.00 | 79 | 1021.3 |
| 20260506160343 | 62 | 201 | 0.9 | 3.5 | 0.00 | 0.00 | 0.00 | 79 | 1021.3 |
| 20260506155338 | 61 | 164 | 0.9 | 2.6 | 0.00 | 0.00 | 0.00 | 80 | 1021.3 |
| 20260506153456 | 61 | 166 | 0.9 | 2.6 | 0.00 | 0.00 | 0.00 | 81 | 1021.2 |
| 20260506152456 | 60 | 124 | 0.0 | 4.3 | 0.00 | 0.00 | 0.00 | 82 | 1021.1 |
| 20260506151451 | 60 | 257 | 0.0 | 2.6 | 0.00 | 0.00 | 0.00 | 83 | 1021.2 |
| 20260506150450 | 59 | 276 | 0.0 | 2.6 | 0.00 | 0.00 | 0.00 | 83 | 1021.1 |
| 20260506145449 | 59 | 139 | 0.0 | 2.6 | 0.00 | 0.00 | 0.00 | 84 | 1021.0 |
| 20260506144449 | 59 | 240 | 0.0 | 1.7 | 0.00 | 0.00 | 0.00 | 85 | 1020.9 |
| 20260506143444 | 58 | 172 | 2.6 | 3.5 | 0.00 | 0.00 | 0.00 | 85 | 1021.2 |
| 20260506142440 | 58 | 187 | 3.5 | 5.2 | 0.00 | 0.00 | 0.00 | 85 | 1020.9 |
| 20260506141436 | 58 | 131 | 1.7 | 3.5 | 0.00 | 0.00 | 0.00 | 86 | 1021.0 |
| 20260506140431 | 57 | 220 | 0.0 | 2.6 | 0.00 | 0.00 | 0.00 | 87 | 1020.9 |
| 20260506135431 | 57 | 189 | 0.0 | 1.7 | 0.00 | 0.00 | 0.00 | 88 | 1020.6 |
| 20260506134429 | 57 | 175 | 0.9 | 2.6 | 0.00 | 0.00 | 0.00 | 88 | 1020.4 |
| 20260506133429 | 57 | 133 | 0.9 | 2.6 | 0.00 | 0.00 | 0.00 | 88 | 1020.4 |
| 20260506132428 | 57 | 73 | 0.0 | 1.7 | 0.00 | 0.00 | 0.00 | 88 | 1020.6 |
| 20260506131428 | 57 | 141 | 0.9 | 1.7 | 0.00 | 0.00 | 0.00 | 88 | 1020.3 |
| 20260506130427 | 57 | 50 | 0.0 | 2.6 | 0.00 | 0.00 | 0.00 | 88 | 1020.4 |
| 20260506125423 | 57 | 144 | 0.0 | 2.6 | 0.00 | 0.00 | 0.00 | 88 | 1020.4 |
| 20260506124418 | 57 | 120 | 0.0 | 2.6 | 0.00 | 0.00 | 0.00 | 88 | 1020.3 |
| 20260506123414 | 57 | 188 | 0.0 | 1.7 | 0.00 | 0.00 | 0.00 | 88 | 1020.1 |
| 20260506122414 | 57 | 123 | 0.0 | 2.6 | 0.00 | 0.00 | 0.00 | 87 | 1020.2 |
| 20260506121409 | 57 | 119 | 0.0 | 1.7 | 0.00 | 0.00 | 0.00 | 87 | 1020.2 |
| 20260506120403 | 57 | 162 | 0.9 | 1.7 | 0.00 | 0.00 | 0.00 | 87 | 1020.1 |
| 20260506115358 | 57 | 133 | 0.9 | 2.6 | 0.00 | 0.00 | 0.00 | 86 | 1020.2 |
| 20260506114359 | 57 | 120 | 0.0 | 2.6 | 0.00 | 0.00 | 0.00 | 87 | 1020.0 |
| 20260506113354 | 57 | 230 | 0.0 | 1.7 | 0.00 | 0.00 | 0.00 | 87 | 1019.7 |
| 20260506112354 | 57 | 51 | 0.9 | 2.6 | 0.00 | 0.00 | 0.00 | 86 | 1019.9 |
| 20260506111350 | 57 | 172 | 0.9 | 3.5 | 0.00 | 0.00 | 0.00 | 86 | 1019.6 |
| 20260506110350 | 57 | 29 | 0.9 | 2.6 | 0.00 | 0.00 | 0.00 | 86 | 1019.5 |
| 20260506105349 | 57 | 173 | 0.9 | 2.6 | 0.00 | 0.00 | 0.00 | 86 | 1019.5 |
| 20260506104344 | 57 | 188 | 0.0 | 1.7 | 0.00 | 0.00 | 0.00 | 86 | 1019.5 |
| 20260506103339 | 57 | 161 | 0.0 | 2.6 | 0.00 | 0.00 | 0.00 | 85 | 1019.3 |
| 20260506102334 | 57 | 76 | 0.0 | 3.5 | 0.00 | 0.00 | 0.00 | 85 | 1019.2 |
| 20260506101333 | 57 | 159 | 1.7 | 3.5 | 0.00 | 0.00 | 0.00 | 85 | 1019.2 |
| 20260506100329 | 57 | 155 | 0.9 | 2.6 | 0.00 | 0.00 | 0.00 | 85 | 1019.3 |
| 20260506095329 | 57 | 188 | 1.7 | 3.5 | 0.00 | 0.00 | 0.00 | 85 | 1019.1 |
| 20260506094325 | 57 | 226 | 1.7 | 2.6 | 0.00 | 0.00 | 0.00 | 85 | 1019.3 |
| 20260506093325 | 58 | 106 | 0.0 | 1.7 | 0.00 | 0.00 | 0.00 | 84 | 1019.2 |
| 20260506092321 | 57 | 181 | 3.5 | 7.0 | 0.00 | 0.00 | 0.00 | 84 | 1019.3 |
| 20260506091321 | 58 | 151 | 3.5 | 4.3 | 0.00 | 0.00 | 0.00 | 84 | 1019.5 |
| 20260506090316 | 58 | 183 | 0.9 | 4.3 | 0.00 | 0.00 | 0.00 | 84 | 1019.3 |
| 20260506085314 | 58 | 157 | 1.7 | 2.6 | 0.00 | 0.00 | 0.00 | 84 | 1019.3 |
| 20260506084314 | 58 | 180 | 1.7 | 3.5 | 0.00 | 0.00 | 0.00 | 83 | 1019.3 |
| 20260506083308 | 58 | 139 | 1.7 | 2.6 | 0.00 | 0.00 | 0.00 | 84 | 1019.3 |
| 20260506082307 | 58 | 142 | 1.7 | 1.7 | 0.00 | 0.00 | 0.00 | 84 | 1019.2 |
| 20260506081302 | 58 | 124 | 0.9 | 2.6 | 0.00 | 0.00 | 0.00 | 84 | 1019.4 |
| 20260506080301 | 58 | 161 | 1.7 | 4.3 | 0.00 | 0.00 | 0.00 | 84 | 1019.3 |
| 20260506073251 | 58 | 127 | 0.9 | 4.3 | 0.00 | 0.00 | 0.00 | 84 | 1019.0 |
| 20260506072252 | 58 | 110 | 1.7 | 4.3 | 0.00 | 0.00 | 0.00 | 84 | 1018.9 |
| 20260506071247 | 58 | 178 | 0.0 | 3.5 | 0.00 | 0.00 | 0.00 | 84 | 1018.8 |
| 20260506070247 | 58 | 117 | 1.7 | 2.6 | 0.00 | 0.00 | 0.00 | 84 | 1018.9 |
| 20260506062230 | 58 | 186 | 2.6 | 4.3 | 0.00 | 0.02 | 0.02 | 84 | 1018.5 |
| 20260506061229 | 58 | 162 | 4.3 | 6.1 | 0.00 | 0.02 | 0.02 | 84 | 1018.3 |
| 20260506060224 | 59 | 355 | 0.0 | 2.6 | 0.00 | 0.02 | 0.02 | 84 | 1018.5 |
| 20260506051214 | 58 | 148 | 1.7 | 2.6 | 0.00 | 0.02 | 0.02 | 85 | 1018.0 |
| 20260506050209 | 59 | 173 | 0.0 | 2.6 | 0.00 | 0.02 | 0.02 | 84 | 1017.8 |
| 20260506044209 | 59 | 334 | 0.9 | 6.1 | 0.00 | 0.02 | 0.02 | 83 | 1017.6 |
| 20260506043204 | 60 | 148 | 0.9 | 7.0 | 0.00 | 0.02 | 0.02 | 82 | 1017.4 |
| 20260506042200 | 60 | 237 | 1.7 | 5.2 | 0.00 | 0.02 | 0.02 | 81 | 1017.2 |
| 20260506041155 | 60 | 191 | 5.2 | 6.1 | 0.00 | 0.02 | 0.02 | 81 | 1017.1 |
| 20260506040155 | 61 | 15 | 0.0 | 4.3 | 0.00 | 0.02 | 0.02 | 81 | 1017.3 |
| 20260506035155 | 61 | 86 | 0.9 | 5.2 | 0.00 | 0.02 | 0.02 | 80 | 1017.1 |
| 20260506034155 | 61 | 244 | 1.7 | 6.1 | 0.00 | 0.02 | 0.02 | 80 | 1016.9 |
| 20260506033154 | 62 | 241 | 0.9 | 5.2 | 0.00 | 0.02 | 0.02 | 81 | 1016.8 |
| 20260506032154 | 61 | 232 | 1.7 | 2.6 | 0.00 | 0.02 | 0.02 | 83 | 1016.7 |
| 20260506031154 | 62 | 165 | 0.9 | 2.6 | 0.00 | 0.02 | 0.02 | 82 | 1016.4 |
| 20260506030149 | 62 | 202 | 0.0 | 2.6 | 0.00 | 0.02 | 0.02 | 82 | 1016.5 |
| 20260506025148 | 62 | 142 | 0.0 | 1.7 | 0.00 | 0.02 | 0.02 | 81 | 1016.3 |
| 20260506024148 | 63 | 199 | 1.7 | 4.3 | 0.00 | 0.02 | 0.02 | 79 | 1015.9 |
| 20260506023147 | 63 | 207 | 2.6 | 5.2 | 0.00 | 0.02 | 0.02 | 78 | 1015.8 |
| 20260506022147 | 64 | 175 | 0.0 | 3.5 | 0.00 | 0.02 | 0.02 | 77 | 1015.8 |
| 20260506021142 | 64 | 153 | 0.0 | 2.6 | 0.00 | 0.02 | 0.02 | 76 | 1015.9 |
| 20260506020142 | 65 | 141 | 0.0 | 3.5 | 0.00 | 0.02 | 0.02 | 76 | 1015.8 |
| 20260506015137 | 65 | 91 | 0.0 | 3.5 | 0.00 | 0.02 | 0.02 | 76 | 1015.8 |
| 20260506014136 | 65 | 190 | 1.7 | 3.5 | 0.00 | 0.02 | 0.02 | 74 | 1015.7 |
| 20260506013131 | 66 | 188 | 1.7 | 4.3 | 0.00 | 0.02 | 0.02 | 72 | 1015.8 |
| 20260506012129 | 66 | 175 | 0.0 | 2.6 | 0.00 | 0.02 | 0.02 | 73 | 1015.7 |
| 20260506011129 | 66 | 177 | 1.7 | 4.3 | 0.00 | 0.02 | 0.02 | 74 | 1015.5 |
| 20260506010125 | 66 | 18 | 0.0 | 1.7 | 0.00 | 0.02 | 0.02 | 75 | 1015.5 |
| 20260506005124 | 66 | 140 | 0.0 | 3.5 | 0.00 | 0.02 | 0.02 | 75 | 1015.3 |
| 20260506004124 | 65 | 201 | 1.7 | 3.5 | 0.00 | 0.02 | 0.02 | 75 | 1015.3 |
| 20260506003122 | 66 | 194 | 1.7 | 3.5 | 0.00 | 0.02 | 0.02 | 75 | 1015.6 |
| 20260506002120 | 66 | 318 | 0.0 | 1.7 | 0.00 | 0.02 | 0.02 | 75 | 1015.5 |
| 20260506001119 | 66 | 231 | 0.9 | 2.6 | 0.00 | 0.02 | 0.02 | 73 | 1015.3 |
| 20260506000119 | 66 | 230 | 0.0 | 3.5 | 0.00 | 0.02 | 0.02 | 74 | 1015.4 |
| 20260505235114 | 66 | 203 | 0.0 | 3.5 | 0.00 | 0.02 | 0.02 | 74 | 1015.3 |
| 20260505234113 | 66 | 183 | 0.0 | 4.3 | 0.00 | 0.02 | 0.02 | 73 | 1015.2 |
| 20260505233108 | 66 | 189 | 2.6 | 5.2 | 0.00 | 0.02 | 0.02 | 74 | 1015.2 |
| 20260505232103 | 66 | 119 | 0.0 | 2.6 | 0.00 | 0.02 | 0.02 | 73 | 1015.4 |
| 20260505231059 | 65 | 193 | 0.0 | 5.2 | 0.00 | 0.02 | 0.02 | 74 | 1015.3 |
| 20260505230058 | 66 | 195 | 1.7 | 2.6 | 0.00 | 0.02 | 0.02 | 73 | 1015.2 |
| 20260505225056 | 66 | 177 | 0.0 | 4.3 | 0.00 | 0.02 | 0.02 | 73 | 1015.6 |
| 20260505224056 | 67 | 217 | 0.0 | 5.2 | 0.00 | 0.02 | 0.02 | 71 | 1015.6 |
| 20260505223055 | 68 | 209 | 0.0 | 2.6 | 0.00 | 0.02 | 0.02 | 68 | 1015.5 |
| 20260505222053 | 68 | 176 | 0.0 | 3.5 | 0.00 | 0.02 | 0.02 | 68 | 1015.7 |
| 20260505221053 | 69 | 235 | 0.0 | 2.6 | 0.00 | 0.02 | 0.02 | 65 | 1015.8 |
| 20260505220048 | 71 | 201 | 0.9 | 3.5 | 0.00 | 0.02 | 0.02 | 61 | 1015.9 |
| 20260505215043 | 68 | 62 | 0.9 | 2.6 | 0.00 | 0.02 | 0.02 | 68 | 1015.8 |
| 20260505214044 | 68 | 49 | 0.9 | 2.6 | 0.00 | 0.02 | 0.02 | 67 | 1015.9 |
| 20260505213043 | 68 | 41 | 0.0 | 1.7 | 0.00 | 0.02 | 0.02 | 69 | 1016.1 |
| 20260505212044 | 66 | 205 | 1.7 | 2.6 | 0.00 | 0.02 | 0.02 | 72 | 1016.1 |
| 20260505211043 | 65 | 49 | 0.9 | 1.7 | 0.00 | 0.02 | 0.02 | 75 | 1016.0 |
| 20260505210037 | 64 | 116 | 0.0 | 4.3 | 0.00 | 0.02 | 0.02 | 77 | 1016.0 |
| 20260505205038 | 64 | 176 | 2.6 | 6.1 | 0.00 | 0.02 | 0.02 | 77 | 1016.1 |
| 20260505204032 | 64 | 165 | 1.7 | 2.6 | 0.00 | 0.02 | 0.02 | 78 | 1016.1 |
| 20260505203032 | 64 | 339 | 1.7 | 4.3 | 0.00 | 0.02 | 0.02 | 79 | 1016.2 |
| 20260505202030 | 64 | 165 | 2.6 | 5.2 | 0.00 | 0.02 | 0.02 | 78 | 1016.2 |
| 20260505201025 | 65 | 176 | 2.6 | 4.3 | 0.00 | 0.02 | 0.02 | 77 | 1016.2 |
| 20260505200019 | 65 | 178 | 0.0 | 3.5 | 0.00 | 0.02 | 0.02 | 76 | 1016.3 |
| 20260505195018 | 65 | 173 | 0.9 | 3.5 | 0.00 | 0.02 | 0.02 | 76 | 1016.5 |
| 20260505194016 | 66 | 267 | 0.9 | 1.7 | 0.00 | 0.02 | 0.02 | 72 | 1016.3 |
| 20260505193010 | 66 | 40 | 1.7 | 3.5 | 0.00 | 0.02 | 0.02 | 71 | 1016.5 |
| 20260505192006 | 66 | 236 | 0.9 | 1.7 | 0.00 | 0.02 | 0.02 | 69 | 1016.2 |
| 20260505191001 | 66 | 259 | 0.0 | 2.6 | 0.00 | 0.02 | 0.02 | 69 | 1016.2 |
| 20260505185958 | 65 | 104 | 0.0 | 3.5 | 0.00 | 0.02 | 0.02 | 71 | 1016.5 |
| 20260505184957 | 68 | 195 | 0.9 | 3.5 | 0.00 | 0.02 | 0.02 | 68 | 1016.0 |
| 20260505183957 | 66 | 192 | 1.7 | 3.5 | 0.00 | 0.02 | 0.02 | 72 | 1016.2 |
| 20260505182956 | 66 | 197 | 1.7 | 3.5 | 0.00 | 0.02 | 0.02 | 71 | 1016.2 |
| 20260505181955 | 65 | 103 | 0.9 | 1.7 | 0.00 | 0.02 | 0.02 | 74 | 1016.2 |
| 20260505180956 | 64 | 86 | 0.9 | 2.6 | 0.00 | 0.02 | 0.02 | 74 | 1016.1 |
| 20260505175955 | 61 | 122 | 0.9 | 2.6 | 0.00 | 0.02 | 0.02 | 80 | 1016.0 |
| 20260505174954 | 61 | 150 | 0.0 | 3.5 | 0.00 | 0.02 | 0.02 | 82 | 1016.2 |
| 20260505173953 | 60 | 343 | 0.0 | 1.7 | 0.00 | 0.02 | 0.02 | 84 | 1015.9 |
| 20260505172952 | 60 | 301 | 0.0 | 3.5 | 0.00 | 0.02 | 0.02 | 86 | 1016.0 |
| 20260505171950 | 59 | 189 | 0.0 | 2.6 | 0.00 | 0.02 | 0.02 | 87 | 1016.0 |
| 20260505170949 | 59 | 185 | 0.0 | 2.6 | 0.00 | 0.02 | 0.02 | 89 | 1016.1 |
| 20260505165948 | 58 | 213 | 0.0 | 5.2 | 0.00 | 0.02 | 0.02 | 89 | 1015.9 |
| 20260505164945 | 58 | 173 | 1.7 | 2.6 | 0.00 | 0.02 | 0.02 | 89 | 1016.0 |
| 20260505163946 | 59 | 109 | 0.0 | 2.6 | 0.00 | 0.02 | 0.02 | 89 | 1015.8 |
| 20260505162943 | 58 | 134 | 0.9 | 5.2 | 0.00 | 0.02 | 0.02 | 90 | 1015.8 |
| 20260505161941 | 58 | 124 | 3.5 | 6.1 | 0.00 | 0.02 | 0.02 | 91 | 1016.0 |